Time;durP1;ratioP1;P1;durP2;ratioP2;P2;SDS_P1;SDS_P2;PMS_P1;PMS_P2;Temp;Humidity;BMP_temperature;BMP_pressure;BME280_temperature;BME280_humidity;BME280_pressure;Samples;Min_cycle;Max_cycle;Signal;HPM_P1;HPM_P2
2022/09/08 00:02:12;;;;;;;3.08;1.15;;;23.40;57.80;;;;;;2338995;54;20959;-72
2022/09/08 00:04:42;;;;;;;3.12;1.20;;;23.30;57.70;;;;;;2343501;54;20970;-73
2022/09/08 00:07:08;;;;;;;4.50;1.12;;;23.40;58.00;;;;;;2375545;53;20934;-72
2022/09/08 00:09:41;;;;;;;4.53;1.17;;;23.40;57.90;;;;;;2337716;54;21905;-72
2022/09/08 00:12:42;;;;;;;2.75;1.20;;;23.40;58.20;;;;;;2337111;53;21552;-73
2022/09/08 00:15:09;;;;;;;2.58;1.02;;;23.40;58.60;;;;;;2336467;54;21477;-71
2022/09/08 00:17:36;;;;;;;3.60;1.25;;;23.30;58.00;;;;;;2339985;54;20931;-72
2022/09/08 00:20:04;;;;;;;2.75;1.27;;;23.30;58.00;;;;;;2339579;54;20940;-72
2022/09/08 00:22:30;;;;;;;2.92;0.90;;;23.30;58.20;;;;;;2338630;54;21299;-72
2022/09/08 00:25:34;;;;;;;1.60;0.73;;;23.30;58.20;;;;;;2326846;54;20924;-73
2022/09/08 00:28:00;;;;;;;;;;;23.30;58.40;;;;;;2324764;54;20927;-73
2022/09/08 00:30:28;;;;;;;1.65;0.68;;;23.30;58.20;;;;;;2335597;54;20098;-72
2022/09/08 00:32:54;;;;;;;1.92;0.73;;;23.30;57.90;;;;;;2338593;54;20988;-73
2022/09/08 00:35:21;;;;;;;2.60;1.00;;;23.30;58.00;;;;;;2337794;54;20917;-73
2022/09/08 00:37:49;;;;;;;2.85;1.10;;;23.30;58.10;;;;;;2338357;54;21333;-72
2022/09/08 00:40:16;;;;;;;1.90;0.82;;;23.30;58.20;;;;;;2339581;54;20936;-73
2022/09/08 00:42:43;;;;;;;2.58;1.00;;;23.20;58.20;;;;;;2338626;54;21503;-73
2022/09/08 00:45:15;;;;;;;2.40;1.10;;;23.30;58.40;;;;;;2334620;54;20972;-73
2022/09/08 00:51:16;;;;;;;3.00;0.77;;;23.30;59.00;;;;;;2430407;53;20979;-73
2022/09/08 00:53:42;;;;;;;2.15;1.00;;;23.30;58.40;;;;;;2342816;53;20893;-73
2022/09/08 00:56:09;;;;;;;1.92;0.90;;;23.20;58.40;;;;;;2528943;53;20929;-73
2022/09/08 00:58:36;;;;;;;1.75;0.80;;;23.20;58.40;;;;;;2344863;53;21491;-73
2022/09/08 01:01:04;;;;;;;2.40;0.90;;;23.20;58.40;;;;;;2338746;54;21286;-73
2022/09/08 01:03:31;;;;;;;1.60;0.70;;;23.20;58.40;;;;;;2583734;53;20943;-73
2022/09/08 01:14:48;;;;;;;2.42;1.02;;;23.20;58.10;;;;;;2536805;52;20938;-73
2022/09/08 01:17:21;;;;;;;1.50;0.80;;;23.20;58.60;;;;;;2366248;54;20961;-73
2022/09/08 01:19:48;;;;;;;2.28;1.00;;;23.10;58.50;;;;;;2368252;54;20926;-73
2022/09/08 01:24:24;;;;;;;1.40;0.70;;;23.10;58.60;;;;;;2363694;54;21093;-72
2022/09/08 01:27:26;;;;;;;1.90;0.80;;;23.10;59.10;;;;;;2360768;54;20925;-73
2022/09/08 01:30:16;;;;;;;3.55;0.90;;;23.10;59.10;;;;;;2366047;54;21049;-73
2022/09/08 01:33:09;;;;;;;2.70;1.15;;;23.10;59.20;;;;;;2354836;54;20996;-72
2022/09/08 01:35:38;;;;;;;1.85;0.90;;;23.10;59.30;;;;;;2481201;52;20973;-72
2022/09/08 01:38:05;;;;;;;2.58;1.08;;;23.10;59.00;;;;;;2366188;54;21010;-72
2022/09/08 01:40:32;;;;;;;3.42;1.45;;;23.00;58.90;;;;;;2365951;54;20942;-71
2022/09/08 01:42:58;;;;;;;2.35;1.00;;;23.00;58.90;;;;;;2617975;52;20974;-73
2022/09/08 01:45:27;;;;;;;2.97;1.00;;;23.00;59.00;;;;;;2347039;53;21037;-73
2022/09/08 01:47:55;;;;;;;1.98;0.93;;;23.00;59.00;;;;;;2365961;54;21391;-73
2022/09/08 01:50:21;;;;;;;2.75;0.90;;;23.00;59.10;;;;;;2455100;52;21052;-74
2022/09/08 01:53:23;;;;;;;1.65;0.90;;;22.90;59.00;;;;;;2363163;54;21132;-72
2022/09/08 01:55:50;;;;;;;2.05;0.80;;;23.00;59.60;;;;;;2536168;52;20958;-73
2022/09/08 01:58:23;;;;;;;2.12;0.93;;;23.00;59.10;;;;;;2614407;52;20926;-73
2022/09/08 02:00:49;;;;;;;1.35;0.65;;;23.00;59.30;;;;;;2364788;54;20918;-73
2022/09/08 02:03:15;;;;;;;1.90;0.90;;;23.00;59.20;;;;;;2362989;54;20946;-73
2022/09/08 02:05:42;;;;;;;1.50;0.60;;;22.90;59.20;;;;;;2354899;54;20984;-73
2022/09/08 02:08:09;;;;;;;1.30;0.52;;;22.90;59.20;;;;;;2427799;52;2158129;-74
2022/09/08 02:10:37;;;;;;;1.70;0.70;;;22.90;59.30;;;;;;2616398;52;20942;-73
2022/09/08 02:13:27;;;;;;;3.40;0.85;;;22.90;59.20;;;;;;2366153;54;20937;-73
2022/09/08 02:15:58;;;;;;;2.22;0.60;;;22.90;59.80;;;;;;2617156;52;21054;-73
2022/09/08 02:18:26;;;;;;;1.60;0.73;;;22.90;59.40;;;;;;2482159;52;20950;-74
2022/09/08 02:21:01;;;;;;;2.53;0.75;;;22.90;59.40;;;;;;2530923;52;20946;-74
2022/09/08 02:23:30;;;;;;;1.75;0.60;;;22.90;59.60;;;;;;2606568;52;21752;-73
2022/09/08 02:25:56;;;;;;;2.47;0.70;;;22.90;59.40;;;;;;2342983;54;21036;-73
2022/09/08 02:28:23;;;;;;;1.37;0.60;;;22.80;59.30;;;;;;2358402;54;20938;-73
2022/09/08 02:30:49;;;;;;;3.33;0.62;;;22.80;59.40;;;;;;2372008;52;21348;-73
2022/09/08 02:33:16;;;;;;;1.77;0.62;;;22.80;59.40;;;;;;2356260;54;20938;-74
2022/09/08 02:35:43;;;;;;;4.47;0.80;;;22.80;59.50;;;;;;2612507;52;21008;-74
2022/09/08 02:38:10;;;;;;;2.10;0.68;;;22.80;59.60;;;;;;2363985;54;20950;-74
2022/09/08 02:40:36;;;;;;;2.42;0.70;;;22.80;59.60;;;;;;2364552;54;20914;-74
2022/09/08 02:43:03;;;;;;;1.20;0.40;;;22.80;59.70;;;;;;2364916;54;20929;-74
2022/09/08 02:45:29;;;;;;;1.27;0.57;;;22.80;59.70;;;;;;2367854;53;20926;-74
2022/09/08 02:47:56;;;;;;;0.93;0.50;;;22.80;59.80;;;;;;2366427;54;21057;-74
2022/09/08 02:50:22;;;;;;;1.75;0.60;;;22.70;59.70;;;;;;2346954;54;20909;-74
2022/09/08 02:52:49;;;;;;;1.17;0.55;;;22.70;59.70;;;;;;2357450;54;21420;-73
2022/09/08 02:55:15;;;;;;;1.02;0.50;;;22.70;59.70;;;;;;2618516;52;20903;-74
2022/09/08 02:57:41;;;;;;;1.83;0.50;;;22.70;59.70;;;;;;2366678;54;20926;-74
2022/09/08 03:00:09;;;;;;;2.22;0.50;;;22.70;59.70;;;;;;2617061;52;20970;-74
2022/09/08 03:02:35;;;;;;;2.03;0.70;;;22.70;59.70;;;;;;2366261;54;20925;-74
2022/09/08 03:05:02;;;;;;;1.55;0.70;;;22.70;59.70;;;;;;2362363;54;21827;-75
2022/09/08 03:07:29;;;;;;;3.75;0.85;;;22.70;59.70;;;;;;2360729;54;20934;-75
2022/09/08 03:09:55;;;;;;;1.73;0.62;;;22.70;59.60;;;;;;2366128;54;20930;-74
2022/09/08 03:12:23;;;;;;;1.50;0.50;;;22.60;59.50;;;;;;2363778;54;21005;-74
2022/09/08 03:14:51;;;;;;;2.20;0.60;;;22.60;59.20;;;;;;2343898;54;21466;-74
2022/09/08 03:17:17;;;;;;;2.25;0.62;;;22.60;59.20;;;;;;2617943;52;20970;-74
2022/09/08 03:19:43;;;;;;;1.33;0.60;;;22.50;58.90;;;;;;2366007;54;20978;-76
2022/09/08 03:22:09;;;;;;;0.98;0.50;;;22.50;58.70;;;;;;2365497;54;20937;-75
2022/09/08 03:24:36;;;;;;;1.33;0.40;;;22.40;58.50;;;;;;2361904;54;21001;-76
2022/09/08 03:27:09;;;;;;;2.33;0.40;;;22.30;58.40;;;;;;2366512;54;20989;-76
2022/09/08 03:29:36;;;;;;;1.60;0.50;;;22.20;58.80;;;;;;2372469;53;21539;-77
2022/09/08 03:32:02;;;;;;;1.45;0.40;;;22.10;58.10;;;;;;2366657;53;21780;-76
2022/09/08 03:34:28;;;;;;;1.08;0.30;;;22.00;58.10;;;;;;2346448;54;20957;-77
2022/09/08 03:36:55;;;;;;;0.50;0.30;;;21.90;58.10;;;;;;2617900;52;21972;-75
2022/09/08 03:39:21;;;;;;;0.75;0.32;;;21.90;58.20;;;;;;2366379;54;20911;-76
2022/09/08 03:45:28;;;;;;;0.52;0.20;;;21.70;58.60;;;;;;2402448;52;20985;-76
2022/09/08 03:47:55;;;;;;;1.75;0.40;;;21.60;58.30;;;;;;2367067;54;20954;-76
2022/09/08 03:50:21;;;;;;;1.25;0.30;;;21.50;58.30;;;;;;2410073;52;20954;-74
2022/09/08 03:52:47;;;;;;;1.27;0.40;;;21.50;58.40;;;;;;2386468;52;21152;-75
2022/09/08 03:55:32;;;;;;;1.02;0.30;;;21.40;58.50;;;;;;2388400;52;21009;-77
2022/09/08 03:57:59;;;;;;;0.50;0.20;;;21.40;58.90;;;;;;2365458;54;20975;-77
2022/09/08 04:00:25;;;;;;;1.37;0.20;;;21.30;58.60;;;;;;2363481;54;21013;-77
2022/09/08 04:02:52;;;;;;;1.12;0.30;;;21.30;58.70;;;;;;2611943;52;20901;-77
2022/09/08 04:05:18;;;;;;;2.58;0.40;;;21.20;58.70;;;;;;2366876;54;20930;-76
2022/09/08 04:07:44;;;;;;;0.62;0.30;;;21.20;58.80;;;;;;2359272;54;21490;-76
2022/09/08 04:10:12;;;;;;;1.00;0.20;;;21.10;58.80;;;;;;2365239;54;20973;-74
2022/09/08 04:16:05;;;;;;;0.68;0.17;;;21.00;59.20;;;;;;2365815;54;21533;-75
2022/09/08 04:18:32;;;;;;;0.37;0.20;;;21.00;58.90;;;;;;2362819;54;20997;-75
2022/09/08 04:20:59;;;;;;;0.73;0.28;;;20.90;59.00;;;;;;2366788;54;20997;-75
2022/09/08 04:23:59;;;;;;;2.08;0.50;;;20.90;59.20;;;;;;2361688;54;20985;-75
2022/09/08 04:29:54;;;;;;;0.68;0.28;;;20.80;59.60;;;;;;2618346;52;20984;-74
2022/09/08 04:32:20;;;;;;;1.20;0.30;;;20.80;59.20;;;;;;2366481;54;20949;-76
2022/09/08 04:34:49;;;;;;;0.93;0.30;;;20.70;59.30;;;;;;2362343;54;21808;-75
2022/09/08 04:47:51;;;;;;;0.70;0.20;;;20.60;59.80;;;;;;2485024;52;21945;-74
2022/09/08 04:50:18;;;;;;;0.75;0.10;;;20.60;59.50;;;;;;2446045;52;20930;-76
2022/09/08 04:52:51;;;;;;;0.20;0.20;;;20.60;59.70;;;;;;2448291;52;20934;-74
2022/09/08 04:55:17;;;;;;;0.32;0.20;;;20.60;59.90;;;;;;2364643;54;21339;-75
2022/09/08 04:57:45;;;;;;;0.17;0.10;;;20.50;59.70;;;;;;2366298;54;20980;-75
2022/09/08 05:00:13;;;;;;;0.75;0.30;;;20.50;59.80;;;;;;2362199;54;21070;-74
2022/09/08 05:02:46;;;;;;;0.50;0.20;;;20.50;60.00;;;;;;2608364;52;20918;-76
2022/09/08 05:05:16;;;;;;;0.50;0.20;;;20.50;60.10;;;;;;2390579;53;20964;-74
2022/09/08 05:07:42;;;;;;;0.43;0.20;;;20.50;60.10;;;;;;2584011;53;20976;-74
2022/09/08 05:10:09;;;;;;;0.88;0.32;;;20.50;60.10;;;;;;2536734;53;20956;-75
2022/09/08 05:12:39;;;;;;;0.40;0.30;;;20.50;60.10;;;;;;2343983;53;21083;-78
2022/09/08 05:15:07;;;;;;;0.93;0.30;;;20.50;60.20;;;;;;2337484;53;21696;-77
2022/09/08 05:17:33;;;;;;;1.10;0.50;;;20.50;60.20;;;;;;2483118;53;21014;-75
2022/09/08 05:24:25;;;;;;;1.15;0.50;;;20.50;60.90;;;;;;2447506;53;20956;-75
2022/09/08 05:26:52;;;;;;;1.23;0.45;;;20.50;60.80;;;;;;2339194;54;20999;-77
2022/09/08 05:29:18;;;;;;;0.90;0.40;;;20.50;60.40;;;;;;2339946;54;20988;-71
2022/09/08 05:31:45;;;;;;;1.67;0.73;;;20.50;60.60;;;;;;2338474;53;21426;-72
2022/09/08 05:34:21;;;;;;;2.30;0.82;;;20.50;61.40;;;;;;2335048;53;20950;-73
2022/09/08 05:36:47;;;;;;;2.12;1.02;;;20.50;61.00;;;;;;2361729;54;20946;-72
2022/09/08 05:39:46;;;;;;;2.25;0.90;;;20.50;60.90;;;;;;2366791;54;20886;-72
2022/09/08 05:42:13;;;;;;;2.05;0.80;;;20.50;61.40;;;;;;2351615;54;20976;-72
2022/09/08 05:44:40;;;;;;;2.20;0.70;;;20.50;61.10;;;;;;2353084;54;21389;-73
2022/09/08 05:47:06;;;;;;;1.12;0.50;;;20.50;61.20;;;;;;2365887;54;20953;-72
2022/09/08 05:49:33;;;;;;;0.90;0.40;;;20.50;61.20;;;;;;2365218;54;20914;-72
2022/09/08 05:52:00;;;;;;;1.27;0.50;;;20.50;61.30;;;;;;2362722;54;20918;-72
2022/09/08 05:54:26;;;;;;;1.73;0.60;;;20.60;61.60;;;;;;2496897;52;20913;-72
2022/09/08 05:56:56;;;;;;;1.58;0.40;;;20.60;61.80;;;;;;2361570;54;20994;-74
2022/09/08 05:59:23;;;;;;;0.80;0.40;;;20.60;61.90;;;;;;2365750;54;20978;-73
2022/09/08 06:01:50;;;;;;;0.90;0.30;;;20.60;61.90;;;;;;2356365;54;20965;-72
2022/09/08 06:04:16;;;;;;;0.47;0.30;;;20.70;62.10;;;;;;2346037;54;20910;-72
2022/09/08 06:06:42;;;;;;;1.10;0.30;;;20.70;62.20;;;;;;2615982;52;20930;-72
2022/09/08 06:09:09;;;;;;;0.85;0.30;;;20.70;62.20;;;;;;2458505;52;20974;-73
2022/09/08 06:11:36;;;;;;;1.02;0.40;;;20.70;62.00;;;;;;2438115;52;20997;-71
2022/09/08 06:14:03;;;;;;;0.93;0.40;;;20.70;61.90;;;;;;2363708;54;21817;-71
2022/09/08 06:16:59;;;;;;;0.98;0.40;;;20.70;61.90;;;;;;2368521;54;20994;-72
2022/09/08 06:19:28;;;;;;;1.50;0.40;;;20.80;62.30;;;;;;2362004;54;21383;-72
2022/09/08 06:21:55;;;;;;;1.12;0.50;;;20.80;62.10;;;;;;2366356;54;20922;-74
2022/09/08 06:24:21;;;;;;;1.80;0.60;;;20.80;62.10;;;;;;2352007;54;20940;-73
2022/09/08 06:27:14;;;;;;;2.15;0.80;;;20.80;62.30;;;;;;2429155;52;20934;-72
2022/09/08 06:30:23;;;;;;;1.60;0.60;;;20.90;62.90;;;;;;2365508;54;20914;-74
2022/09/08 06:32:59;;;;;;;2.00;0.57;;;20.90;62.90;;;;;;2365638;54;20962;-73
2022/09/08 06:35:28;;;;;;;1.87;0.62;;;20.90;62.60;;;;;;2618043;52;21001;-73
2022/09/08 06:37:59;;;;;;;2.22;0.80;;;20.90;62.50;;;;;;2364895;54;20981;-73
2022/09/08 06:40:45;;;;;;;1.98;0.68;;;20.90;62.50;;;;;;2365576;54;20938;-73
2022/09/08 06:43:24;;;;;;;1.92;0.60;;;21.00;63.20;;;;;;2366112;54;20918;-72
2022/09/08 06:46:10;;;;;;;0.90;0.40;;;21.00;63.10;;;;;;2366109;54;20922;-73
2022/09/08 06:48:37;;;;;;;2.17;0.70;;;21.00;63.10;;;;;;2613696;52;20931;-73
2022/09/08 06:52:21;;;;;;;3.75;0.80;;;21.00;62.80;;;;;;2410785;52;21486;-73
2022/09/08 06:55:07;;;;;;;3.33;0.60;;;21.10;63.40;;;;;;2349480;54;21372;-73
2022/09/08 06:58:58;;;;;;;3.22;0.60;;;21.10;63.10;;;;;;2414153;52;20997;-73
2022/09/08 07:08:29;;;;;;;2.00;0.68;;;21.20;63.30;;;;;;2615744;52;21798;-73
2022/09/08 07:11:45;;;;;;;1.65;0.50;;;21.20;63.00;;;;;;2446819;52;20934;-75
2022/09/08 07:14:50;;;;;;;1.08;0.47;;;21.30;63.00;;;;;;2438530;52;21003;-73
2022/09/08 07:17:45;;;;;;;2.10;0.70;;;21.30;63.40;;;;;;2366788;54;20909;-73
2022/09/08 07:20:12;;;;;;;2.10;0.73;;;21.40;63.70;;;;;;2359382;54;20914;-74
2022/09/08 07:27:46;;;;;;;2.60;1.00;;;21.40;63.30;;;;;;2367667;52;21447;-72
2022/09/08 07:30:17;;;;;;;2.22;0.70;;;21.40;63.50;;;;;;2351702;54;21015;-74
2022/09/08 07:32:45;;;;;;;1.62;0.70;;;21.60;63.30;;;;;;2342171;54;21057;-73
2022/09/08 07:36:58;;;;;;;3.62;0.90;;;21.60;63.50;;;;;;2614218;52;21793;-74
2022/09/08 07:39:32;;;;;;;2.60;0.80;;;21.70;63.80;;;;;;2362611;54;20946;-74
2022/09/08 07:42:02;;;;;;;1.80;0.80;;;21.70;63.40;;;;;;2616362;52;20929;-74
2022/09/08 07:44:28;;;;;;;2.40;0.90;;;21.80;63.50;;;;;;2359175;54;21459;-72
2022/09/08 07:48:50;;;;;;;2.53;1.10;;;21.80;63.60;;;;;;2342393;54;20933;-75
2022/09/08 07:51:17;;;;;;;1.30;0.52;;;21.90;64.30;;;;;;2617443;52;20995;-72
2022/09/08 07:54:57;;;;;;;2.35;0.90;;;21.90;63.80;;;;;;2365946;54;21399;-72
2022/09/08 07:57:51;;;;;;;1.58;0.65;;;22.00;64.50;;;;;;2366887;54;20926;-72
2022/09/08 08:00:32;;;;;;;2.00;0.80;;;22.00;64.40;;;;;;2365236;54;20974;-72
2022/09/08 08:03:28;;;;;;;2.70;0.77;;;22.10;64.10;;;;;;2480224;52;21404;-72
2022/09/08 08:06:16;;;;;;;2.33;0.95;;;22.10;64.40;;;;;;2495252;53;21010;-71
2022/09/08 08:09:02;;;;;;;2.53;0.90;;;22.20;64.20;;;;;;2611480;52;20978;-73
2022/09/08 08:14:45;;;;;;;2.25;0.88;;;22.20;64.10;;;;;;2365871;54;20933;-74
2022/09/08 08:17:27;;;;;;;2.00;0.77;;;22.30;64.10;;;;;;2365380;54;21054;-72
2022/09/08 08:20:03;;;;;;;3.33;0.68;;;22.40;63.60;;;;;;2365313;54;20923;-75
2022/09/08 08:24:18;;;;;;;2.42;0.80;;;22.40;63.40;;;;;;2584605;53;21541;-72
2022/09/08 08:27:22;;;;;;;1.45;0.60;;;22.40;63.30;;;;;;2338830;53;20996;-72
2022/09/08 08:30:19;;;;;;;0.80;0.35;;;22.40;62.90;;;;;;2371540;53;21035;-73
2022/09/08 08:33:15;;;;;;;1.87;0.60;;;22.50;62.80;;;;;;2338843;53;20925;-71
2022/09/08 08:35:50;;;;;;;1.10;0.52;;;22.50;62.80;;;;;;2338492;53;20952;-72
2022/09/08 08:38:53;;;;;;;1.45;0.50;;;22.40;62.50;;;;;;2337745;53;20987;-75
2022/09/08 08:44:37;;;;;;;2.90;0.62;;;22.50;62.80;;;;;;2339599;53;20972;-72
2022/09/08 08:58:55;;;;;;;1.58;0.57;;;22.50;62.80;;;;;;2334619;53;21033;-72
2022/09/08 09:03:05;;;;;;;1.42;0.50;;;22.60;62.30;;;;;;2338573;53;20928;-72
2022/09/08 09:06:06;;;;;;;1.15;0.40;;;22.60;62.60;;;;;;2340205;53;20976;-72
2022/09/08 09:09:08;;;;;;;2.85;0.88;;;22.60;62.60;;;;;;2328823;53;21507;-72
2022/09/08 09:14:27;;;;;;;1.08;0.43;;;22.60;62.70;;;;;;2331305;53;20942;-72
2022/09/08 09:18:50;;;;;;;2.75;0.45;;;22.50;62.70;;;;;;2331556;54;20954;-72
2022/09/08 09:21:37;;;;;;;1.00;0.40;;;22.60;62.90;;;;;;2328982;53;21518;-73
2022/09/08 09:24:18;;;;;;;1.15;0.50;;;22.60;63.30;;;;;;2339106;54;20994;-72
2022/09/08 09:26:47;;;;;;;1.00;0.47;;;22.60;63.40;;;;;;2385718;53;20946;-72
2022/09/08 09:29:24;;;;;;;1.83;0.55;;;22.60;63.40;;;;;;2339731;54;21015;-73
2022/09/08 09:32:24;;;;;;;1.48;0.50;;;22.70;63.60;;;;;;2338903;54;20942;-72
2022/09/08 09:35:20;;;;;;;1.25;0.50;;;22.70;63.50;;;;;;2583869;53;20974;-74
2022/09/08 09:39:46;;;;;;;1.50;0.40;;;22.80;62.90;;;;;;2583698;53;21048;-72
2022/09/08 09:43:52;;;;;;;8.18;0.40;;;22.90;62.60;;;;;;2338931;53;20952;-72
2022/09/08 09:51:36;;;;;;;0.50;0.22;;;23.00;62.30;;;;;;2335528;53;20936;-72
2022/09/08 09:59:19;;;;;;;0.68;0.28;;;23.10;61.70;;;;;;2338436;53;21537;-71
2022/09/08 10:05:01;;;;;;;1.17;0.40;;;23.10;61.50;;;;;;2339004;54;20968;-72
2022/09/08 10:09:16;;;;;;;2.47;0.40;;;23.20;61.80;;;;;;2483323;53;20956;-71
2022/09/08 10:14:42;;;;;;;0.50;0.30;;;23.30;61.40;;;;;;2581178;53;20956;-74
2022/09/08 10:22:11;;;;;;;0.50;0.30;;;23.30;61.20;;;;;;2339761;54;21066;-75
2022/09/08 10:25:01;;;;;;;1.20;0.30;;;23.50;61.10;;;;;;2337790;54;20964;-73
2022/09/08 10:28:11;;;;;;;1.27;0.40;;;23.60;61.10;;;;;;2341785;53;20940;-74
2022/09/08 10:32:48;;;;;;;1.60;0.50;;;23.60;60.70;;;;;;2338700;53;21425;-73
2022/09/08 10:38:48;;;;;;;3.30;0.50;;;23.70;60.60;;;;;;2333635;53;21024;-72
2022/09/08 10:41:45;;;;;;;0.98;0.30;;;23.90;60.80;;;;;;2331847;53;20913;-74
2022/09/08 10:47:08;;;;;;;2.05;0.40;;;24.00;60.10;;;;;;2343923;53;21202;-71
2022/09/08 10:51:15;;;;;;;0.68;0.30;;;24.10;60.40;;;;;;2544074;53;21016;-72
2022/09/08 10:54:19;;;;;;;1.05;0.30;;;24.10;60.00;;;;;;2462115;52;21449;-72
2022/09/08 10:56:47;;;;;;;1.12;0.40;;;24.10;59.80;;;;;;2366410;54;20934;-73
2022/09/08 11:00:39;;;;;;;1.00;0.45;;;24.20;60.10;;;;;;2365791;54;20925;-72
2022/09/08 11:03:36;;;;;;;2.40;0.30;;;24.30;60.00;;;;;;2366471;54;21434;-73
2022/09/08 11:06:06;;;;;;;0.47;0.30;;;24.30;60.10;;;;;;2362614;53;21421;-74
2022/09/08 11:10:22;;;;;;;2.45;0.30;;;24.30;60.10;;;;;;2348647;54;21021;-72
2022/09/08 11:14:06;;;;;;;1.25;0.50;;;24.40;59.80;;;;;;2617280;52;20942;-72
2022/09/08 11:17:50;;;;;;;0.93;0.35;;;24.50;59.90;;;;;;2364705;54;20917;-72
2022/09/08 11:20:30;;;;;;;0.73;0.20;;;24.50;60.00;;;;;;2618092;52;21415;-75
2022/09/08 11:24:39;;;;;;;0.98;0.47;;;24.60;60.00;;;;;;2487806;52;20926;-72
2022/09/08 11:29:16;;;;;;;0.98;0.30;;;24.60;59.70;;;;;;2366334;54;21403;-72
2022/09/08 11:32:08;;;;;;;0.40;0.20;;;24.70;59.40;;;;;;2366142;54;20941;-72
2022/09/08 11:37:56;;;;;;;1.17;0.30;;;24.70;58.80;;;;;;2367064;54;20911;-72
2022/09/08 11:43:12;;;;;;;1.77;0.37;;;24.70;58.80;;;;;;2363510;54;20998;-72
2022/09/08 11:52:10;;;;;;;0.90;0.30;;;24.70;58.60;;;;;;2365820;54;21430;-72
2022/09/08 11:58:34;;;;;;;0.30;0.20;;;24.70;58.40;;;;;;2615243;52;21062;-72
2022/09/08 12:02:06;;;;;;;1.52;0.40;;;24.80;58.50;;;;;;2357454;53;20966;-72
2022/09/08 12:05:04;;;;;;;1.30;0.37;;;24.80;58.30;;;;;;2363257;54;20945;-72
2022/09/08 12:08:12;;;;;;;1.67;0.37;;;24.80;58.40;;;;;;2362591;54;21736;-72
2022/09/08 12:12:14;;;;;;;1.25;0.40;;;24.80;58.00;;;;;;2362705;54;20949;-72
2022/09/08 12:14:50;;;;;;;2.00;0.40;;;24.80;58.30;;;;;;2349927;54;21012;-72
2022/09/08 12:17:55;;;;;;;1.08;0.30;;;24.80;57.60;;;;;;2604832;52;21762;-73
2022/09/08 12:21:05;;;;;;;2.12;0.70;;;24.90;57.40;;;;;;2346216;54;20938;-74
2022/09/08 12:24:08;;;;;;;1.87;0.32;;;24.90;56.90;;;;;;2353948;54;20969;-72
2022/09/08 12:29:41;;;;;;;2.72;0.35;;;25.00;56.90;;;;;;2351509;54;20930;-71
2022/09/08 12:33:59;;;;;;;3.90;0.22;;;25.00;56.60;;;;;;2360744;54;20946;-73
2022/09/08 12:36:52;;;;;;;2.22;0.40;;;25.20;56.30;;;;;;2367836;54;20946;-74
2022/09/08 12:41:00;;;;;;;2.20;0.65;;;25.20;55.70;;;;;;2366091;54;21121;-73
2022/09/08 12:43:37;;;;;;;1.62;0.50;;;25.30;56.00;;;;;;2366116;54;21431;-75
2022/09/08 12:47:02;;;;;;;1.75;0.40;;;25.40;55.90;;;;;;2365934;53;21798;-74
2022/09/08 12:52:31;;;;;;;1.70;0.50;;;25.50;56.00;;;;;;2338414;54;20948;-73
2022/09/08 12:55:16;;;;;;;1.25;0.30;;;25.60;55.40;;;;;;2338908;54;20952;-72
2022/09/08 12:57:56;;;;;;;0.75;0.22;;;25.80;54.90;;;;;;2342598;54;20923;-74
2022/09/08 13:00:27;;;;;;;2.08;0.40;;;25.80;54.40;;;;;;2342544;53;20944;-74
2022/09/08 13:03:56;;;;;;;2.80;0.40;;;25.90;54.90;;;;;;2569996;53;21440;-72
2022/09/08 13:09:45;;;;;;;1.77;0.30;;;26.00;54.20;;;;;;2589280;52;20920;-73
2022/09/08 13:14:04;;;;;;;1.15;0.22;;;26.10;53.50;;;;;;2584694;52;21272;-74
2022/09/08 13:17:25;;;;;;;0.98;0.20;;;26.20;53.40;;;;;;2346887;52;20938;-75
2022/09/08 13:21:53;;;;;;;1.05;0.32;;;26.30;53.10;;;;;;2343883;54;20984;-75
2022/09/08 13:26:00;;;;;;;0.98;0.28;;;26.30;52.80;;;;;;2342837;54;20924;-73
2022/09/08 13:28:53;;;;;;;1.67;0.40;;;26.30;52.40;;;;;;2587360;52;20919;-71
2022/09/08 13:33:49;;;;;;;2.80;0.40;;;26.30;51.30;;;;;;2342269;54;20952;-73
2022/09/08 13:37:53;;;;;;;1.85;0.50;;;26.40;51.30;;;;;;2343724;54;20977;-70
2022/09/08 13:41:55;;;;;;;1.05;0.20;;;26.40;51.70;;;;;;2344031;54;21031;-73
2022/09/08 13:51:03;;;;;;;3.20;0.30;;;26.50;51.30;;;;;;2590542;52;20928;-71
2022/09/08 13:55:04;;;;;;;0.80;0.20;;;26.60;52.10;;;;;;2343126;54;20990;-72
2022/09/08 13:58:07;;;;;;;1.30;0.30;;;26.70;52.10;;;;;;2343844;54;20944;-71
2022/09/08 14:00:52;;;;;;;;;;;26.80;51.50;;;;;;2346571;54;20944;-72
2022/09/08 14:03:18;;;;;;;1.37;0.30;;;26.90;51.90;;;;;;2343754;54;20117;-71
2022/09/08 14:05:48;;;;;;;1.40;0.40;;;26.90;52.20;;;;;;2343589;54;21344;-72
2022/09/08 14:08:25;;;;;;;1.50;0.40;;;26.90;51.60;;;;;;2590579;52;21451;-70
2022/09/08 14:11:28;;;;;;;1.20;0.40;;;26.90;50.50;;;;;;2343167;54;20924;-71
2022/09/08 14:14:22;;;;;;;0.70;0.28;;;26.90;50.30;;;;;;2343396;53;20899;-71
2022/09/08 14:16:48;;;;;;;1.02;0.25;;;27.00;50.20;;;;;;2346520;54;20924;-71
2022/09/08 14:21:25;;;;;;;1.05;0.30;;;27.00;50.90;;;;;;2349191;54;21875;-71
2022/09/08 14:30:54;;;;;;;2.83;0.32;;;27.10;50.30;;;;;;2586122;52;20960;-72
2022/09/08 14:33:31;;;;;;;1.20;0.20;;;27.20;50.40;;;;;;2345440;54;21051;-71
2022/09/08 14:38:36;;;;;;;0.82;0.30;;;27.30;49.80;;;;;;2343995;54;20952;-70
2022/09/08 14:41:08;;;;;;;1.00;0.25;;;27.30;49.90;;;;;;2350542;53;21058;-71
2022/09/08 14:48:09;;;;;;;2.45;0.47;;;27.30;49.40;;;;;;2340649;53;21001;-71
2022/09/08 14:54:28;;;;;;;1.40;0.35;;;27.30;49.20;;;;;;2344639;54;20912;-71
2022/09/08 14:57:11;;;;;;;1.75;0.30;;;27.40;49.60;;;;;;2341398;54;20919;-70
2022/09/08 15:00:26;;;;;;;1.70;0.40;;;27.30;48.70;;;;;;2343573;54;21445;-70
2022/09/08 15:03:55;;;;;;;1.20;0.43;;;27.30;49.10;;;;;;2342863;54;21422;-70
2022/09/08 15:06:44;;;;;;;2.55;0.50;;;27.20;48.50;;;;;;2347699;52;21412;-71
2022/09/08 15:09:29;;;;;;;1.48;0.40;;;27.20;48.40;;;;;;2343770;54;21303;-73
2022/09/08 15:11:56;;;;;;;1.75;0.40;;;27.20;48.20;;;;;;2342857;54;20928;-71
2022/09/08 15:14:29;;;;;;;1.52;0.40;;;27.20;49.00;;;;;;2590256;52;21480;-71
2022/09/08 15:17:26;;;;;;;2.33;0.60;;;27.10;48.50;;;;;;2343561;54;20919;-73
2022/09/08 15:20:28;;;;;;;2.20;0.40;;;27.20;48.20;;;;;;2562874;52;21736;-71
2022/09/08 15:23:33;;;;;;;1.05;0.43;;;27.10;47.90;;;;;;2343604;54;20907;-70
2022/09/08 15:28:01;;;;;;;2.25;0.60;;;27.10;48.00;;;;;;2342438;54;20915;-70
2022/09/08 15:30:29;;;;;;;0.73;0.17;;;27.10;47.70;;;;;;2343030;54;21011;-72
2022/09/08 15:33:49;;;;;;;1.20;0.40;;;27.10;48.10;;;;;;2342738;53;21063;-71
2022/09/08 15:37:56;;;;;;;0.62;0.28;;;27.10;47.30;;;;;;2342897;54;21345;-71
2022/09/08 15:40:23;;;;;;;2.30;0.43;;;27.10;47.60;;;;;;2343782;54;20984;-72
2022/09/08 15:43:07;;;;;;;1.27;0.30;;;27.00;47.80;;;;;;2344487;53;21060;-71
2022/09/08 15:46:00;;;;;;;1.60;0.30;;;27.00;47.30;;;;;;2343666;53;21019;-72
2022/09/08 15:55:06;;;;;;;0.95;0.30;;;27.00;47.20;;;;;;2344538;54;20939;-73
2022/09/08 15:58:12;;;;;;;0.55;0.13;;;26.90;47.40;;;;;;2590769;52;21003;-71
2022/09/08 16:00:53;;;;;;;1.10;0.25;;;26.90;47.40;;;;;;2343039;54;20944;-70
2022/09/08 16:03:40;;;;;;;1.55;0.35;;;26.90;47.50;;;;;;2590997;52;21023;-70
2022/09/08 16:08:54;;;;;;;1.92;0.30;;;26.80;47.00;;;;;;2343974;54;20968;-70
2022/09/08 16:11:42;;;;;;;0.55;0.20;;;26.80;47.50;;;;;;2337802;54;20969;-73
2022/09/08 16:14:38;;;;;;;1.67;0.30;;;26.80;47.70;;;;;;2338371;54;20960;-72
2022/09/08 16:17:12;;;;;;;1.23;0.40;;;26.80;47.40;;;;;;2345289;53;20984;-70
2022/09/08 16:19:41;;;;;;;1.98;0.30;;;26.80;47.80;;;;;;2347611;54;21055;-70
2022/09/08 16:22:30;;;;;;;1.17;0.20;;;26.70;47.90;;;;;;2347251;53;20912;-70
2022/09/08 16:25:00;;;;;;;1.08;0.30;;;26.70;47.40;;;;;;2342938;53;20944;-71
2022/09/08 16:27:49;;;;;;;2.35;0.32;;;26.70;47.90;;;;;;2344159;54;20947;-70
2022/09/08 16:33:32;;;;;;;1.75;0.40;;;26.70;47.40;;;;;;2590532;52;21802;-70
2022/09/08 16:37:11;;;;;;;1.25;0.20;;;26.70;47.60;;;;;;2343492;54;20947;-71
2022/09/08 16:39:37;;;;;;;1.00;0.37;;;26.60;47.40;;;;;;2590114;52;20939;-70
2022/09/08 16:42:14;;;;;;;1.87;0.40;;;26.60;47.80;;;;;;2544883;52;21007;-72
2022/09/08 16:44:52;;;;;;;1.77;0.40;;;26.50;47.70;;;;;;2343930;54;20955;-70
2022/09/08 16:48:02;;;;;;;2.33;0.30;;;26.50;47.40;;;;;;2343580;54;20996;-70
2022/09/08 16:50:38;;;;;;;1.60;0.50;;;26.40;47.60;;;;;;2346921;54;21063;-71
2022/09/08 16:53:32;;;;;;;3.25;0.50;;;26.40;47.80;;;;;;2339389;53;20939;-72
2022/09/08 16:56:53;;;;;;;2.30;0.50;;;26.30;47.40;;;;;;2343321;54;20923;-70
2022/09/08 17:00:23;;;;;;;2.03;0.50;;;26.30;47.50;;;;;;2589976;52;21398;-73
2022/09/08 17:04:22;;;;;;;2.20;0.40;;;26.30;47.90;;;;;;2342974;54;21428;-72
2022/09/08 17:07:03;;;;;;;2.62;0.40;;;26.30;47.90;;;;;;2343157;54;21476;-70
2022/09/08 17:12:52;;;;;;;1.25;0.40;;;26.20;48.10;;;;;;2342931;54;20915;-70
2022/09/08 17:15:47;;;;;;;0.93;0.22;;;26.20;48.00;;;;;;2346190;54;21039;-71
2022/09/08 17:19:48;;;;;;;1.35;0.37;;;26.20;48.00;;;;;;2342387;54;21280;-71
2022/09/08 17:23:36;;;;;;;1.92;0.60;;;26.10;48.10;;;;;;2342778;54;21411;-70